Sertosa Veintisiete — EAJZ — position and weather

sailwx.info

Track history (hours):
 
Tides and Currents Weather Stations Pressure Air Temp Water Temp Dewpoint Dewpoint Depression Visibility Wind Speed Wind Dir Waves Ship Positions

Sertosa Veintisiete

Last reported at 2015-Jul-19 14:33 UTC. Time now 2015-Jul-29 20:00 UTC.
Position N 36°10' W 005°23'.
Warning: this ship's position is 10 days out of date.

Length 30 m; draft 5.5 m.

Type: Tug. MMSI: 224337000.

Date/timePositionNaut miles runAvg speedWind from/ knotsBaromVisibWave heightAir tempDewpointWater temp
2015-Jul-19 14:33N 36°10' W 005°23'  
2015-Jul-14 11:22N 36°11' W 005°24'1 0.6
2015-Jul-14 10:32N 36°11' W 005°24'1 0.3
2015-Jul-14 09:03N 36°11' W 005°24'0 0.0
2015-Jul-14 08:33N 36°11' W 005°24'0 0.0
2015-Jul-14 07:33N 36°11' W 005°24'1 0.6
2015-Jul-14 05:32N 36°10' W 005°23'0 0.0
2015-Jul-14 04:28N 36°10' W 005°23'1 0.2
2015-Jul-14 00:32N 36°11' W 005°24'0 0.1
2015-Jul-13 23:33N 36°10' W 005°24'1 0.9
2015-Jul-13 22:25N 36°10' W 005°23'0 0.0
2015-Jul-13 21:32N 36°10' W 005°23'0 0.0
2015-Jul-13 20:33N 36°10' W 005°23'0 0.0
2015-Jul-13 19:33N 36°10' W 005°23'0 0.4
2015-Jul-13 18:33N 36°10' W 005°23'2 2.2
2015-Jul-13 17:32N 36°08' W 005°24'2 2.5
2015-Jul-13 16:33N 36°10' W 005°24'1 0.8
2015-Jul-13 15:33N 36°10' W 005°23'0 0.1
2015-Jul-13 14:33N 36°10' W 005°23'3 2.8
2015-Jul-13 13:34N 36°09' W 005°26'1 1.2
2015-Jul-13 12:33N 36°09' W 005°24'2 1.9
2015-Jul-13 11:33N 36°10' W 005°23'0 0.0
2015-Jul-13 10:33N 36°10' W 005°23'0 0.0
2015-Jul-13 09:33N 36°10' W 005°23'0 0.0
2015-Jul-13 08:08N 36°10' W 005°23'1 1.9
2015-Jul-13 07:31N 36°11' W 005°24'0 0.0
2015-Jul-13 03:31N 36°11' W 005°24'0 0.0
2015-Jul-13 02:23N 36°11' W 005°24'1 0.5
2015-Jul-13 01:21N 36°11' W 005°24'1 0.6
2015-Jul-13 00:25N 36°11' W 005°24'0 0.0
2015-Jul-12 23:31N 36°11' W 005°24'1 0.6
2015-Jul-12 22:33N 36°10' W 005°24'0 0.2
2015-Jul-12 21:33N 36°10' W 005°24'1 0.7
2015-Jul-12 20:33N 36°10' W 005°23'0 0.0
2015-Jul-12 19:33N 36°10' W 005°23'0 0.0
2015-Jul-12 18:33N 36°10' W 005°23'0 0.0
2015-Jul-12 16:33N 36°10' W 005°23'0 0.0
2015-Jul-12 15:31N 36°10' W 005°23'0 0.0
2015-Jul-12 14:27N 36°10' W 005°23'0 0.0
2015-Jul-12 13:33N 36°10' W 005°23'0 0.0
2015-Jul-12 12:33N 36°10' W 005°23'0 0.0
2015-Jul-12 11:33N 36°10' W 005°23'2 1.6
2015-Jul-12 10:26N 36°10' W 005°25'1 0.1
2015-Jul-11 23:32N 36°10' W 005°24'1 0.5
2015-Jul-11 21:30N 36°11' W 005°24'0 0.0
2015-Jul-11 20:19N 36°11' W 005°24'0 0.1
2015-Jul-11 19:32N 36°11' W 005°24'1 1.3
2015-Jul-11 18:33N 36°10' W 005°23'0 0.0
2015-Jul-11 17:33N 36°10' W 005°23'0 0.0
2015-Jul-11 16:33N 36°10' W 005°23'0 0.0
2015-Jul-11 15:33N 36°10' W 005°23'0 0.0
2015-Jul-11 14:33N 36°10' W 005°23'0 0.0
2015-Jul-11 13:33N 36°10' W 005°23'0 0.0
2015-Jul-11 12:33N 36°10' W 005°23'0 0.0
2015-Jul-11 11:32N 36°10' W 005°23'0 0.0
2015-Jul-11 03:33N 36°10' W 005°23'0 0.0
2015-Jul-11 02:32N 36°10' W 005°23'0 0.0
2015-Jul-10 22:29N 36°10' W 005°23'0 0.0
2015-Jul-10 21:33N 36°10' W 005°23'1 1.1
2015-Jul-10 20:33N 36°11' W 005°24'0 0.2
2015-Jul-10 19:33N 36°11' W 005°24'0 0.0
2015-Jul-10 18:33N 36°11' W 005°24'0 0.0
2015-Jul-10 17:33N 36°11' W 005°24'0 0.0
2015-Jul-10 16:33N 36°11' W 005°24'0 0.4
2015-Jul-10 15:34N 36°10' W 005°24'0 0.4
2015-Jul-10 14:33N 36°11' W 005°24'0 0.0
2015-Jul-10 13:07N 36°11' W 005°24'0 0.0
2015-Jul-10 12:32N 36°11' W 005°24'0 0.0
2015-Jul-10 11:31N 36°11' W 005°24'1 0.8
2015-Jul-10 10:33N 36°10' W 005°25'1 0.7
2015-Jul-10 09:21N 36°11' W 005°24'  
Track history (hours):
 
Tides and Currents Weather Stations Pressure Air Temp Water Temp Dewpoint Dewpoint Depression Visibility Wind Speed Wind Dir Waves Ship Positions

Sertosa Veintisiete

Last reported at 2015-Jul-19 14:33 UTC. Time now 2015-Jul-29 20:00 UTC.
Position N 36°10' W 005°23'.
Warning: this ship's position is 10 days out of date.

Length 30 m; draft 5.5 m.

Type: Tug. MMSI: 224337000.

Date/timePositionNaut miles runAvg speedWind from/ knotsBaromVisibWave heightAir tempDewpointWater temp
2015-Jul-19 14:33N 36°10' W 005°23'  
2015-Jul-14 11:22N 36°11' W 005°24'1 0.6
2015-Jul-14 10:32N 36°11' W 005°24'1 0.3
2015-Jul-14 09:03N 36°11' W 005°24'0 0.0
2015-Jul-14 08:33N 36°11' W 005°24'0 0.0
2015-Jul-14 07:33N 36°11' W 005°24'1 0.6
2015-Jul-14 05:32N 36°10' W 005°23'0 0.0
2015-Jul-14 04:28N 36°10' W 005°23'1 0.2
2015-Jul-14 00:32N 36°11' W 005°24'0 0.1
2015-Jul-13 23:33N 36°10' W 005°24'1 0.9
2015-Jul-13 22:25N 36°10' W 005°23'0 0.0
2015-Jul-13 21:32N 36°10' W 005°23'0 0.0
2015-Jul-13 20:33N 36°10' W 005°23'0 0.0
2015-Jul-13 19:33N 36°10' W 005°23'0 0.4
2015-Jul-13 18:33N 36°10' W 005°23'2 2.2
2015-Jul-13 17:32N 36°08' W 005°24'2 2.5
2015-Jul-13 16:33N 36°10' W 005°24'1 0.8
2015-Jul-13 15:33N 36°10' W 005°23'0 0.1
2015-Jul-13 14:33N 36°10' W 005°23'3 2.8
2015-Jul-13 13:34N 36°09' W 005°26'1 1.2
2015-Jul-13 12:33N 36°09' W 005°24'2 1.9
2015-Jul-13 11:33N 36°10' W 005°23'0 0.0
2015-Jul-13 10:33N 36°10' W 005°23'0 0.0
2015-Jul-13 09:33N 36°10' W 005°23'0 0.0
2015-Jul-13 08:08N 36°10' W 005°23'1 1.9
2015-Jul-13 07:31N 36°11' W 005°24'0 0.0
2015-Jul-13 03:31N 36°11' W 005°24'0 0.0
2015-Jul-13 02:23N 36°11' W 005°24'1 0.5
2015-Jul-13 01:21N 36°11' W 005°24'1 0.6
2015-Jul-13 00:25N 36°11' W 005°24'0 0.0
2015-Jul-12 23:31N 36°11' W 005°24'1 0.6
2015-Jul-12 22:33N 36°10' W 005°24'0 0.2
2015-Jul-12 21:33N 36°10' W 005°24'1 0.7
2015-Jul-12 20:33N 36°10' W 005°23'0 0.0
2015-Jul-12 19:33N 36°10' W 005°23'0 0.0
2015-Jul-12 18:33N 36°10' W 005°23'0 0.0
2015-Jul-12 16:33N 36°10' W 005°23'0 0.0
2015-Jul-12 15:31N 36°10' W 005°23'0 0.0
2015-Jul-12 14:27N 36°10' W 005°23'0 0.0
2015-Jul-12 13:33N 36°10' W 005°23'0 0.0
2015-Jul-12 12:33N 36°10' W 005°23'0 0.0
2015-Jul-12 11:33N 36°10' W 005°23'2 1.6
2015-Jul-12 10:26N 36°10' W 005°25'1 0.1
2015-Jul-11 23:32N 36°10' W 005°24'1 0.5
2015-Jul-11 21:30N 36°11' W 005°24'0 0.0
2015-Jul-11 20:19N 36°11' W 005°24'0 0.1
2015-Jul-11 19:32N 36°11' W 005°24'1 1.3
2015-Jul-11 18:33N 36°10' W 005°23'0 0.0
2015-Jul-11 17:33N 36°10' W 005°23'0 0.0
2015-Jul-11 16:33N 36°10' W 005°23'0 0.0
2015-Jul-11 15:33N 36°10' W 005°23'0 0.0
2015-Jul-11 14:33N 36°10' W 005°23'0 0.0
2015-Jul-11 13:33N 36°10' W 005°23'0 0.0
2015-Jul-11 12:33N 36°10' W 005°23'0 0.0
2015-Jul-11 11:32N 36°10' W 005°23'0 0.0
2015-Jul-11 03:33N 36°10' W 005°23'0 0.0
2015-Jul-11 02:32N 36°10' W 005°23'0 0.0
2015-Jul-10 22:29N 36°10' W 005°23'0 0.0
2015-Jul-10 21:33N 36°10' W 005°23'1 1.1
2015-Jul-10 20:33N 36°11' W 005°24'0 0.2
2015-Jul-10 19:33N 36°11' W 005°24'0 0.0
2015-Jul-10 18:33N 36°11' W 005°24'0 0.0
2015-Jul-10 17:33N 36°11' W 005°24'0 0.0
2015-Jul-10 16:33N 36°11' W 005°24'0 0.4
2015-Jul-10 15:34N 36°10' W 005°24'0 0.4
2015-Jul-10 14:33N 36°11' W 005°24'0 0.0
2015-Jul-10 13:07N 36°11' W 005°24'0 0.0
2015-Jul-10 12:32N 36°11' W 005°24'0 0.0
2015-Jul-10 11:31N 36°11' W 005°24'1 0.8
2015-Jul-10 10:33N 36°10' W 005°25'1 0.7
2015-Jul-10 09:21N 36°11' W 005°24'  

Dump ship's entire track history